KCVX

Details ICAO KCVX (CVX)
Name CHARLEVOIX MUNI
Region United States
Timezone America/Detroit (UTC-5.0)
Plans Departing 1
Arriving 6
Stats Elevation 669 ft / 204 m (AMSL)
Location 45.304804° -85.273204°
Runways 2
Magnetic Variation 6.484° W
Sunrise 2017-12-11 13:12:01 UTC / 2017-12-11 08:12:01 Local
Sunset 2017-12-11 21:59:48 UTC / 2017-12-11 16:59:48 Local
Advertisement - Login to hide

Runways

ID Width Length Bearing (true) Bearing (mag) Surface Threshold Offset Overrun Length
04 200 ft / 61 m 1,278 ft / 390 m 45.47° 51.95° Grass 0 ft / 0 m 0 ft / 0 m
09 75 ft / 23 m 4,538 ft / 1,383 m 84.59° 91.07° Asphalt 0 ft / 0 m 0 ft / 0 m
22 200 ft / 61 m 1,278 ft / 390 m 225.47° 231.95° Grass 0 ft / 0 m 0 ft / 0 m
27 75 ft / 23 m 4,538 ft / 1,383 m 264.60° 271.08° Asphalt 0 ft / 0 m 0 ft / 0 m

Map

Weather


0- 5 10 15 20 25 30 35+ Temperature / ° C

Clouds and Precipitation
Forecast for 2017-12-11 12:00 UTC. Updated 2 hours ago

Ground ~20,000 ft ~40,000 ft Winds

METAR

KCVX 111315Z AUTO 16005KT 10SM OVC031 M07/M10 A2996 RMK AO2 T10711100

TAF

Not found

Frequencies

Recorded 120.00 MHz AWOS 3
Unicom 122.80 MHz CTAF/UNICOM
Warning: Do not use this data for real-world aviation or navigation. No guarantee of current accuracy is given.